createdAt,value
2018-04-14T00:01:27.191Z,8.06
2018-04-14T00:03:53.021Z,8.03
2018-04-14T00:06:18.811Z,8.02
2018-04-14T00:08:44.564Z,8.05
2018-04-14T00:11:10.300Z,8.04
2018-04-14T00:13:36.035Z,8.09
2018-04-14T00:16:01.760Z,8.14
2018-04-14T00:18:27.533Z,8.11
2018-04-14T00:20:53.281Z,8.09
2018-04-14T00:23:19.036Z,8.13
2018-04-14T00:25:44.759Z,8.12
2018-04-14T00:28:10.485Z,8.14
2018-04-14T00:30:36.220Z,8.05
2018-04-14T00:33:01.986Z,7.96
2018-04-14T00:35:27.710Z,7.86
2018-04-14T00:37:53.427Z,7.82
2018-04-14T00:40:19.161Z,7.80
2018-04-14T00:42:44.893Z,7.76
2018-04-14T00:45:10.677Z,7.77
2018-04-14T00:47:36.404Z,7.81
2018-04-14T00:50:02.168Z,7.82
2018-04-14T00:52:28.276Z,7.82
2018-04-14T00:54:54.031Z,7.78
2018-04-14T00:57:19.763Z,7.81
2018-04-14T00:59:45.496Z,7.76
2018-04-14T01:02:11.251Z,7.79
2018-04-14T01:04:36.984Z,7.82
2018-04-14T01:07:02.699Z,7.83
2018-04-14T01:09:28.420Z,7.84
2018-04-14T01:11:54.168Z,7.79
2018-04-14T01:14:19.908Z,7.76
2018-04-14T01:16:45.631Z,7.77
2018-04-14T01:19:11.377Z,7.75
2018-04-14T01:21:37.093Z,7.81
2018-04-14T01:24:02.836Z,7.93
2018-04-14T01:26:28.803Z,7.96
2018-04-14T01:28:54.544Z,7.94
2018-04-14T01:31:20.277Z,7.88
2018-04-14T01:33:46.017Z,7.90
2018-04-14T01:36:11.869Z,7.88
2018-04-14T01:38:37.596Z,7.75
2018-04-14T01:41:03.349Z,7.78
2018-04-14T01:43:29.072Z,7.78
2018-04-14T01:45:54.804Z,7.78
2018-04-14T01:48:20.531Z,7.75
2018-04-14T01:50:46.256Z,7.86
2018-04-14T01:53:11.975Z,7.86
2018-04-14T01:55:43.968Z,7.84
2018-04-14T01:58:09.744Z,7.81
2018-04-14T02:00:35.520Z,7.82
2018-04-14T02:03:01.267Z,7.86
2018-04-14T02:05:27.016Z,7.92
2018-04-14T02:07:52.745Z,7.93
2018-04-14T02:10:18.581Z,7.92
2018-04-14T02:12:44.295Z,7.94
2018-04-14T02:15:10.028Z,7.94
2018-04-14T02:17:35.756Z,7.98
2018-04-14T02:20:01.506Z,8.00
2018-04-14T02:22:27.223Z,7.99
2018-04-14T02:24:52.960Z,7.90
2018-04-14T02:27:18.686Z,7.88
2018-04-14T02:29:44.410Z,7.94
2018-04-14T02:32:10.139Z,8.01
2018-04-14T02:34:36.864Z,8.04
2018-04-14T02:37:03.647Z,8.06
2018-04-14T02:39:29.406Z,8.05
2018-04-14T02:41:55.128Z,7.95
2018-04-14T02:44:20.852Z,7.89
2018-04-14T02:46:46.608Z,7.92
2018-04-14T02:49:12.337Z,7.90
2018-04-14T02:51:38.078Z,7.91
2018-04-14T02:54:03.805Z,7.91
2018-04-14T02:56:29.540Z,7.87
2018-04-14T02:58:55.281Z,7.82
2018-04-14T03:01:21.019Z,7.89
2018-04-14T03:03:46.740Z,7.90
2018-04-14T03:06:12.472Z,7.94
2018-04-14T03:08:38.207Z,8.01
2018-04-14T03:11:03.952Z,7.95
2018-04-14T03:13:29.673Z,7.96
2018-04-14T03:15:55.396Z,7.95
2018-04-14T03:18:21.112Z,7.99
2018-04-14T03:20:46.828Z,7.97
2018-04-14T03:23:12.552Z,7.99
2018-04-14T03:25:38.307Z,8.02
2018-04-14T03:28:04.020Z,8.02
2018-04-14T03:30:29.760Z,8.00
2018-04-14T03:32:55.487Z,8.00
2018-04-14T03:35:21.221Z,7.98
2018-04-14T03:37:46.957Z,7.98
2018-04-14T03:40:12.713Z,8.01
2018-04-14T03:42:38.461Z,7.99
2018-04-14T03:45:04.193Z,7.99
2018-04-14T03:47:29.944Z,7.95
2018-04-14T03:49:55.699Z,7.94
2018-04-14T03:52:21.438Z,7.93
2018-04-14T03:54:47.165Z,7.98
2018-04-14T03:57:12.892Z,7.94
2018-04-14T03:59:38.632Z,7.93
2018-04-14T04:02:04.380Z,7.94
2018-04-14T04:04:30.133Z,7.94
2018-04-14T04:06:55.858Z,7.93
2018-04-14T04:09:21.588Z,7.89
2018-04-14T04:11:47.315Z,7.96
2018-04-14T04:14:13.031Z,7.95
2018-04-14T04:16:38.776Z,7.95
2018-04-14T04:19:16.845Z,7.95
2018-04-14T04:21:55.060Z,7.96
2018-04-14T04:24:33.240Z,7.93
2018-04-14T04:26:58.985Z,7.94
2018-04-14T04:29:24.720Z,7.94
2018-04-14T04:31:50.465Z,7.99
2018-04-14T04:34:16.196Z,7.99
2018-04-14T04:36:41.941Z,7.98
2018-04-14T04:39:07.665Z,7.95
2018-04-14T04:41:33.400Z,7.98
2018-04-14T04:43:59.128Z,7.97
2018-04-14T04:46:24.868Z,7.99
2018-04-14T04:48:50.649Z,8.00
2018-04-14T04:51:16.349Z,8.05
2018-04-14T04:53:42.089Z,8.07
2018-04-14T04:56:07.827Z,8.07
2018-04-14T04:58:33.577Z,8.11
2018-04-14T05:00:59.301Z,8.09
2018-04-14T05:03:25.027Z,8.11
2018-04-14T05:05:50.753Z,8.12
2018-04-14T05:08:16.485Z,8.12
2018-04-14T05:10:42.204Z,8.17
2018-04-14T05:13:07.930Z,8.18
2018-04-14T05:15:33.666Z,8.17
2018-04-14T05:17:59.405Z,8.17
2018-04-14T05:20:25.136Z,8.17
2018-04-14T05:22:50.892Z,8.20
2018-04-14T05:25:16.626Z,8.22
2018-04-14T05:27:42.387Z,8.20
2018-04-14T05:30:08.113Z,8.19
2018-04-14T05:32:33.861Z,8.20
2018-04-14T05:34:59.589Z,8.17
2018-04-14T05:37:25.325Z,8.15
2018-04-14T05:39:51.047Z,8.09
2018-04-14T05:42:16.781Z,8.12
2018-04-14T05:44:42.520Z,8.05
2018-04-14T05:47:08.268Z,7.99
2018-04-14T05:49:33.992Z,7.98
2018-04-14T05:51:59.735Z,7.98
2018-04-14T05:54:25.495Z,7.89
2018-04-14T05:56:51.209Z,7.83
2018-04-14T05:59:16.944Z,7.88
2018-04-14T06:01:42.689Z,7.87
2018-04-14T06:04:08.417Z,7.90
2018-04-14T06:06:34.137Z,7.90
2018-04-14T06:08:59.880Z,7.95
2018-04-14T06:11:25.584Z,7.92
2018-04-14T06:13:51.312Z,7.93
2018-04-14T06:16:17.040Z,7.89
2018-04-14T06:18:42.776Z,7.88
2018-04-14T06:21:08.507Z,7.90
2018-04-14T06:23:34.245Z,7.92
2018-04-14T06:25:59.972Z,7.98
2018-04-14T06:28:25.707Z,7.98
2018-04-14T06:30:51.440Z,8.03
2018-04-14T06:33:17.180Z,8.04
2018-04-14T06:35:42.904Z,8.05
2018-04-14T06:38:08.642Z,7.97
2018-04-14T06:40:34.382Z,7.94
2018-04-14T06:43:00.124Z,7.93
2018-04-14T06:45:25.849Z,7.97
2018-04-14T06:47:51.646Z,7.99
2018-04-14T06:50:17.345Z,8.02
2018-04-14T06:52:43.098Z,8.07
2018-04-14T06:55:08.835Z,8.06
2018-04-14T06:57:34.598Z,8.04
2018-04-14T07:00:00.336Z,8.07
2018-04-14T07:02:26.085Z,8.13
2018-04-14T07:04:51.826Z,8.12
2018-04-14T07:07:17.568Z,8.10
2018-04-14T07:09:43.309Z,8.10
2018-04-14T07:12:09.045Z,8.11
2018-04-14T07:14:34.765Z,8.10
2018-04-14T07:17:00.496Z,8.04
2018-04-14T07:19:26.239Z,8.02
2018-04-14T07:21:51.967Z,8.09
2018-04-14T07:24:17.707Z,8.18
2018-04-14T07:26:43.440Z,8.18
2018-04-14T07:29:09.179Z,8.19
2018-04-14T07:31:34.900Z,8.23
2018-04-14T07:34:00.645Z,8.18
2018-04-14T07:36:26.374Z,8.25
2018-04-14T07:38:52.123Z,8.28
2018-04-14T07:41:17.840Z,8.33
2018-04-14T07:43:43.577Z,8.41
2018-04-14T07:46:09.317Z,8.30
2018-04-14T07:48:35.067Z,8.43
2018-04-14T07:51:00.801Z,8.37
2018-04-14T07:53:26.543Z,8.35
2018-04-14T07:55:52.260Z,8.30
2018-04-14T07:58:18.010Z,8.34
2018-04-14T08:00:43.756Z,8.43
2018-04-14T08:03:09.508Z,8.33
2018-04-14T08:05:35.242Z,8.24
2018-04-14T08:08:00.983Z,8.24
2018-04-14T08:10:26.708Z,8.24
2018-04-14T08:12:52.444Z,8.24
2018-04-14T08:15:18.186Z,8.17
2018-04-14T08:17:43.945Z,8.14
2018-04-14T08:20:09.680Z,8.16
2018-04-14T08:22:35.427Z,8.28
2018-04-14T08:25:01.184Z,8.31
2018-04-14T08:27:26.913Z,8.26
2018-04-14T08:29:52.648Z,8.37
2018-04-14T08:32:18.387Z,8.40
2018-04-14T08:34:44.120Z,8.41
2018-04-14T08:37:09.844Z,8.32
2018-04-14T08:39:35.580Z,8.21
2018-04-14T08:42:01.320Z,8.20
2018-04-14T08:44:27.053Z,8.23
2018-04-14T08:46:52.792Z,8.33
2018-04-14T08:49:18.538Z,8.41
2018-04-14T08:51:44.268Z,8.33
2018-04-14T08:54:10.031Z,8.32
2018-04-14T08:56:35.764Z,8.26
2018-04-14T08:59:01.524Z,8.40
2018-04-14T09:01:27.255Z,8.35
2018-04-14T09:03:52.984Z,8.30
2018-04-14T09:06:18.705Z,8.43
2018-04-14T09:08:44.442Z,8.42
2018-04-14T09:11:10.177Z,8.35
2018-04-14T09:13:35.919Z,8.42
2018-04-14T09:16:01.664Z,8.45
2018-04-14T09:18:27.404Z,8.43
2018-04-14T09:20:53.220Z,8.46
2018-04-14T09:23:20.393Z,8.52
2018-04-14T09:25:47.061Z,8.44
2018-04-14T09:28:12.788Z,8.49
2018-04-14T09:30:38.521Z,8.46
2018-04-14T09:33:04.267Z,8.45
2018-04-14T09:35:30.006Z,8.57
2018-04-14T09:37:55.737Z,8.56
2018-04-14T09:40:21.620Z,8.54
2018-04-14T09:42:47.360Z,8.59
2018-04-14T09:45:13.109Z,8.63
2018-04-14T09:47:38.848Z,8.67
2018-04-14T09:50:04.612Z,8.65
2018-04-14T09:52:30.340Z,8.56
2018-04-14T09:54:56.072Z,8.58
2018-04-14T09:57:22.072Z,8.48
2018-04-14T09:59:47.835Z,8.40
2018-04-14T10:02:13.979Z,8.43
2018-04-14T10:04:40.031Z,8.48
2018-04-14T10:07:05.769Z,8.46
2018-04-14T10:09:31.604Z,8.54
2018-04-14T10:11:57.358Z,8.64
2018-04-14T10:14:23.096Z,8.66
2018-04-14T10:16:48.825Z,8.74
2018-04-14T10:19:14.569Z,8.86
2018-04-14T10:21:40.291Z,8.83
2018-04-14T10:24:06.020Z,8.83
2018-04-14T10:26:31.737Z,8.96
2018-04-14T10:28:57.756Z,8.87
2018-04-14T10:31:23.500Z,8.93
2018-04-14T10:33:49.227Z,8.87
2018-04-14T10:36:14.968Z,8.85
2018-04-14T10:38:40.708Z,8.74
2018-04-14T10:41:06.450Z,8.73
2018-04-14T10:43:32.188Z,8.74
2018-04-14T10:45:57.924Z,8.72
2018-04-14T10:48:23.684Z,8.68
2018-04-14T10:50:49.425Z,8.55
2018-04-14T10:53:15.168Z,8.62
2018-04-14T10:55:40.908Z,8.66
2018-04-14T10:58:06.640Z,8.65
2018-04-14T11:00:32.367Z,8.69
2018-04-14T11:02:58.105Z,8.70
2018-04-14T11:05:23.852Z,8.67
2018-04-14T11:07:49.580Z,8.59
2018-04-14T11:10:15.320Z,8.59
2018-04-14T11:12:41.060Z,8.68
2018-04-14T11:15:06.807Z,8.67
2018-04-14T11:17:32.534Z,8.65
2018-04-14T11:19:58.273Z,8.67
2018-04-14T11:22:23.998Z,8.66
2018-04-14T11:24:49.747Z,8.75
2018-04-14T11:27:15.468Z,8.66
2018-04-14T11:29:41.213Z,8.63
2018-04-14T11:32:06.936Z,8.64
2018-04-14T11:34:32.668Z,8.61
2018-04-14T11:36:58.388Z,8.69
2018-04-14T11:39:24.127Z,8.58
2018-04-14T11:41:49.871Z,8.49
2018-04-14T11:44:15.608Z,8.45
2018-04-14T11:46:41.352Z,8.44
2018-04-14T11:49:07.089Z,8.43
2018-04-14T11:51:32.828Z,8.41
2018-04-14T11:53:58.556Z,8.49
2018-04-14T11:56:24.297Z,8.42
2018-04-14T11:58:50.041Z,8.39
2018-04-14T12:01:15.772Z,8.36
2018-04-14T12:03:41.545Z,8.38
2018-04-14T12:06:07.250Z,8.45
2018-04-14T12:08:33.000Z,8.43
2018-04-14T12:10:58.741Z,8.40
2018-04-14T12:13:24.480Z,8.44
2018-04-14T12:15:50.227Z,8.47
2018-04-14T12:18:15.957Z,8.47
2018-04-14T12:20:41.692Z,8.48
2018-04-14T12:23:07.428Z,8.47
2018-04-14T12:25:33.172Z,8.58
2018-04-14T12:27:58.905Z,8.55
2018-04-14T12:30:24.646Z,8.59
2018-04-14T12:32:50.373Z,8.72
2018-04-14T12:35:16.112Z,8.61
2018-04-14T12:37:41.848Z,8.71
2018-04-14T12:40:07.608Z,8.72
2018-04-14T12:42:33.340Z,8.77
2018-04-14T12:44:59.093Z,8.80
2018-04-14T12:47:24.832Z,8.74
2018-04-14T12:49:50.564Z,8.79
2018-04-14T12:52:16.299Z,8.70
2018-04-14T12:54:42.039Z,8.76
2018-04-14T12:57:07.774Z,8.76
2018-04-14T12:59:33.514Z,8.81
2018-04-14T13:01:59.264Z,8.78
2018-04-14T13:04:24.992Z,8.80
2018-04-14T13:06:50.732Z,8.84
2018-04-14T13:09:16.510Z,8.80
2018-04-14T13:11:42.222Z,8.78
2018-04-14T13:14:07.956Z,8.72
2018-04-14T13:16:33.703Z,8.70
2018-04-14T13:18:59.456Z,8.66
2018-04-14T13:21:25.192Z,8.59
2018-04-14T13:23:50.924Z,8.58
2018-04-14T13:26:16.681Z,8.59
2018-04-14T13:28:42.407Z,8.45
2018-04-14T13:31:08.155Z,8.51
2018-04-14T13:33:33.887Z,8.48
2018-04-14T13:35:59.629Z,8.51
2018-04-14T13:38:25.364Z,8.50
2018-04-14T13:40:51.109Z,8.52
2018-04-14T13:43:16.849Z,8.55
2018-04-14T13:45:42.592Z,8.55
2018-04-14T13:48:08.332Z,8.52
2018-04-14T13:50:34.063Z,8.54
2018-04-14T13:52:59.794Z,8.53
2018-04-14T13:55:25.524Z,8.47
2018-04-14T13:57:51.258Z,8.47
2018-04-14T14:00:16.992Z,8.49
2018-04-14T14:02:42.715Z,8.44
2018-04-14T14:05:08.444Z,8.46
2018-04-14T14:07:34.196Z,8.51
2018-04-14T14:09:59.922Z,8.53
2018-04-14T14:12:25.652Z,8.47
2018-04-14T14:14:51.403Z,8.47
2018-04-14T14:17:17.153Z,8.46
2018-04-14T14:19:42.875Z,8.45
2018-04-14T14:22:08.624Z,8.37
2018-04-14T14:24:34.363Z,8.38
2018-04-14T14:27:00.109Z,8.41
2018-04-14T14:29:25.856Z,8.41
2018-04-14T14:31:51.580Z,8.35
2018-04-14T14:34:17.307Z,8.36
2018-04-14T14:36:43.044Z,8.37
2018-04-14T14:39:08.764Z,8.30
2018-04-14T14:41:34.496Z,8.32
2018-04-14T14:44:00.229Z,8.39
2018-04-14T14:46:25.977Z,8.36
2018-04-14T14:48:51.711Z,8.36
2018-04-14T14:51:17.440Z,8.38
2018-04-14T14:53:43.176Z,8.35
2018-04-14T14:56:08.913Z,8.42
2018-04-14T14:58:34.642Z,8.41
2018-04-14T15:01:00.384Z,8.43
2018-04-14T15:03:26.123Z,8.44
2018-04-14T15:05:51.856Z,8.47
2018-04-14T15:08:17.603Z,8.52
2018-04-14T15:10:43.332Z,8.49
2018-04-14T15:13:09.079Z,8.53
2018-04-14T15:15:34.810Z,8.49
2018-04-14T15:18:00.549Z,8.52
2018-04-14T15:20:26.276Z,8.54
2018-04-14T15:22:52.012Z,8.57
2018-04-14T15:25:17.757Z,8.62
2018-04-14T15:27:43.487Z,8.59
2018-04-14T15:30:09.207Z,8.63
2018-04-14T15:32:34.931Z,8.56
2018-04-14T15:35:00.664Z,8.65
2018-04-14T15:37:26.400Z,8.64
2018-04-14T15:39:52.120Z,8.62
2018-04-14T15:42:17.847Z,8.62
2018-04-14T15:44:43.576Z,8.62
2018-04-14T15:47:09.322Z,8.64
2018-04-14T15:49:35.056Z,8.62
2018-04-14T15:52:00.797Z,8.63
2018-04-14T15:54:26.517Z,8.61
2018-04-14T15:56:52.249Z,8.63
2018-04-14T15:59:17.988Z,8.66
2018-04-14T16:01:43.720Z,8.67
2018-04-14T16:04:09.888Z,8.68
2018-04-14T16:06:35.200Z,8.66
2018-04-14T16:09:00.944Z,8.67
2018-04-14T16:11:26.685Z,8.69
2018-04-14T16:13:52.421Z,8.71
2018-04-14T16:16:18.156Z,8.70
2018-04-14T16:18:43.920Z,8.71
2018-04-14T16:21:09.656Z,8.72
2018-04-14T16:23:35.448Z,8.72
2018-04-14T16:26:01.155Z,8.72
2018-04-14T16:28:26.889Z,8.72
2018-04-14T16:30:52.616Z,8.75
2018-04-14T16:33:18.347Z,8.75
2018-04-14T16:35:44.070Z,8.73
2018-04-14T16:38:09.800Z,8.76
2018-04-14T16:40:35.524Z,8.74
2018-04-14T16:43:01.256Z,8.71
2018-04-14T16:45:26.980Z,8.70
2018-04-14T16:47:52.724Z,8.71
2018-04-14T16:50:18.468Z,8.67
2018-04-14T16:52:44.199Z,8.67
2018-04-14T16:55:09.918Z,8.66
2018-04-14T16:57:35.663Z,8.66
2018-04-14T17:00:01.417Z,8.67
2018-04-14T17:02:27.145Z,8.65
2018-04-14T17:04:52.895Z,8.63
2018-04-14T17:07:18.620Z,8.59
2018-04-14T17:09:44.360Z,8.61
2018-04-14T17:12:10.073Z,8.54
2018-04-14T17:14:35.805Z,8.54
2018-04-14T17:17:01.540Z,8.52
2018-04-14T17:19:27.284Z,8.54
2018-04-14T17:21:53.008Z,8.50
2018-04-14T17:24:18.743Z,8.47
2018-04-14T17:26:44.501Z,8.48
2018-04-14T17:29:10.241Z,8.51
2018-04-14T17:31:35.972Z,8.49
2018-04-14T17:34:02.508Z,8.52
2018-04-14T17:36:28.224Z,8.52
2018-04-14T17:38:53.956Z,8.47
2018-04-14T17:41:19.683Z,8.47
2018-04-14T17:43:45.415Z,8.48
2018-04-14T17:46:11.131Z,8.45
2018-04-14T17:48:36.872Z,8.44
2018-04-14T17:51:02.597Z,8.44
2018-04-14T17:53:28.323Z,8.43
2018-04-14T17:55:54.056Z,8.41
2018-04-14T17:58:19.805Z,8.42
2018-04-14T18:00:45.540Z,8.42
2018-04-14T18:03:11.288Z,8.41
2018-04-14T18:05:37.031Z,8.43
2018-04-14T18:08:02.767Z,8.41
2018-04-14T18:10:28.488Z,8.39
2018-04-14T18:12:54.278Z,8.39
2018-04-14T18:15:20.012Z,8.37
2018-04-14T18:17:45.774Z,8.40
2018-04-14T18:20:11.582Z,8.40
2018-04-14T18:22:37.372Z,8.38
2018-04-14T18:25:03.201Z,8.39
2018-04-14T18:27:28.996Z,8.36
2018-04-14T18:29:54.761Z,8.40
2018-04-14T18:32:20.507Z,8.38
2018-04-14T18:34:46.251Z,8.37
2018-04-14T18:37:12.020Z,8.39
2018-04-14T18:39:37.731Z,8.36
2018-04-14T18:42:03.455Z,8.33
2018-04-14T18:44:29.598Z,8.32
2018-04-14T18:46:56.591Z,8.31
2018-04-14T18:49:22.774Z,8.32
2018-04-14T18:51:48.932Z,8.31
2018-04-14T18:54:14.720Z,8.29
2018-04-14T18:56:40.459Z,8.33
2018-04-14T18:59:06.210Z,8.28
2018-04-14T19:01:31.921Z,8.30
2018-04-14T19:03:58.956Z,8.32
2018-04-14T19:06:24.695Z,8.30
2018-04-14T19:08:50.429Z,8.29
2018-04-14T19:11:16.145Z,8.28
2018-04-14T19:13:41.929Z,8.27
2018-04-14T19:16:07.608Z,8.27
2018-04-14T19:18:33.345Z,8.26
2018-04-14T19:20:59.067Z,8.26
2018-04-14T19:23:24.799Z,8.24
2018-04-14T19:25:50.538Z,8.23
2018-04-14T19:28:16.256Z,8.24
2018-04-14T19:30:41.992Z,8.26
2018-04-14T19:33:07.728Z,8.25
2018-04-14T19:35:33.466Z,8.23
2018-04-14T19:37:59.249Z,8.24
2018-04-14T19:40:24.942Z,8.24
2018-04-14T19:42:50.668Z,8.22
2018-04-14T19:45:16.403Z,8.22
2018-04-14T19:47:42.124Z,8.22
2018-04-14T19:50:07.855Z,8.24
2018-04-14T19:52:33.586Z,8.27
2018-04-14T19:54:59.327Z,8.25
2018-04-14T19:57:25.052Z,8.26
2018-04-14T19:59:50.803Z,8.26
2018-04-14T20:02:16.517Z,8.25
2018-04-14T20:04:42.249Z,8.25
2018-04-14T20:07:08.055Z,8.26
2018-04-14T20:09:33.744Z,8.28
2018-04-14T20:11:59.472Z,8.27
2018-04-14T20:14:25.208Z,8.25
2018-04-14T20:16:50.928Z,8.24
2018-04-14T20:19:16.660Z,8.26
2018-04-14T20:21:42.380Z,8.26
2018-04-14T20:24:08.112Z,8.23
2018-04-14T20:26:33.840Z,8.19
2018-04-14T20:28:59.575Z,8.22
2018-04-14T20:31:25.303Z,8.21
2018-04-14T20:33:51.045Z,8.21
2018-04-14T20:36:16.796Z,8.17
2018-04-14T20:38:42.527Z,8.16
2018-04-14T20:41:08.311Z,8.15
2018-04-14T20:43:33.992Z,8.12
2018-04-14T20:45:59.729Z,8.08
2018-04-14T20:48:25.477Z,8.04
2018-04-14T20:50:51.209Z,8.00
2018-04-14T20:53:16.928Z,8.02
2018-04-14T20:55:42.690Z,7.99
2018-04-14T20:58:08.411Z,7.94
2018-04-14T21:00:34.147Z,7.95
2018-04-14T21:02:59.872Z,8.00
2018-04-14T21:05:25.612Z,8.05
2018-04-14T21:07:51.339Z,8.01
2018-04-14T21:10:17.075Z,7.97
2018-04-14T21:12:42.810Z,7.92
2018-04-14T21:15:08.545Z,7.89
2018-04-14T21:17:34.266Z,7.86
2018-04-14T21:19:59.996Z,7.85
2018-04-14T21:22:25.748Z,7.80
2018-04-14T21:24:51.488Z,7.77
2018-04-14T21:27:17.209Z,7.78
2018-04-14T21:29:42.944Z,7.80
2018-04-14T21:32:08.665Z,7.78
2018-04-14T21:34:34.409Z,7.83
2018-04-14T21:37:00.124Z,7.79
2018-04-14T21:39:25.848Z,7.77
2018-04-14T21:41:51.577Z,7.70
2018-04-14T21:44:17.327Z,7.67
2018-04-14T21:46:43.048Z,7.61
2018-04-14T21:49:08.788Z,7.58
2018-04-14T21:51:34.545Z,7.55
2018-04-14T21:54:00.288Z,7.58
2018-04-14T21:56:26.025Z,7.52
2018-04-14T21:58:51.763Z,7.52
2018-04-14T22:01:17.504Z,7.47
2018-04-14T22:03:43.227Z,7.42
2018-04-14T22:06:08.979Z,7.40
2018-04-14T22:08:34.712Z,7.40
2018-04-14T22:11:00.447Z,7.37
2018-04-14T22:13:26.179Z,7.36
2018-04-14T22:15:51.918Z,7.34
2018-04-14T22:18:17.645Z,7.29
2018-04-14T22:20:43.396Z,7.32
2018-04-14T22:23:09.133Z,7.32
2018-04-14T22:25:34.869Z,7.25
2018-04-14T22:28:00.596Z,7.21
2018-04-14T22:30:26.336Z,7.14
2018-04-14T22:32:52.072Z,7.05
2018-04-14T22:35:17.880Z,6.92
2018-04-14T22:37:43.583Z,6.95
2018-04-14T22:40:09.323Z,6.89
2018-04-14T22:42:35.064Z,6.85
2018-04-14T22:45:00.798Z,6.84
2018-04-14T22:47:26.541Z,6.83
2018-04-14T22:49:52.272Z,6.92
2018-04-14T22:52:18.009Z,6.98
2018-04-14T22:54:43.743Z,7.04
2018-04-14T22:57:09.477Z,7.13
2018-04-14T22:59:35.212Z,7.19
2018-04-14T23:02:00.952Z,7.28
2018-04-14T23:04:26.684Z,7.33
2018-04-14T23:06:52.420Z,7.39
2018-04-14T23:09:18.152Z,7.46
2018-04-14T23:11:43.889Z,7.52
2018-04-14T23:16:41.211Z,7.58
2018-04-14T23:19:06.932Z,7.59
2018-04-14T23:21:32.664Z,7.63
2018-04-14T23:23:58.392Z,7.65
2018-04-14T23:26:24.149Z,7.67
2018-04-14T23:28:49.875Z,7.66
2018-04-14T23:31:15.615Z,7.68
2018-04-14T23:33:41.344Z,7.69
2018-04-14T23:36:07.084Z,7.69
2018-04-14T23:38:32.804Z,7.72
2018-04-14T23:40:58.545Z,7.73
2018-04-14T23:43:24.264Z,7.74
2018-04-14T23:45:50.003Z,7.73
2018-04-14T23:48:15.739Z,7.72
2018-04-14T23:50:41.493Z,7.74
2018-04-14T23:53:07.219Z,7.76
2018-04-14T23:55:32.942Z,7.77
2018-04-14T23:57:58.671Z,7.79
